Time;durP1;ratioP1;P1;durP2;ratioP2;P2;SDS_P1;SDS_P2;PMS_P1;PMS_P2;Temp;Humidity;BMP_temperature;BMP_pressure;BME280_temperature;BME280_humidity;BME280_pressure;Samples;Min_cycle;Max_cycle;Signal;HPM_P1;HPM_P2
2021/11/11 00:02:11;;;;;;;4.97;2.35;;;;;;;10.38;75.88;101616.38;5034291;28;20451;-79
2021/11/11 00:04:38;;;;;;;9.15;5.40;;;;;;;10.40;75.82;101627.97;5034097;28;20049;-79
2021/11/11 00:07:05;;;;;;;4.07;2.67;;;;;;;10.38;76.04;101608.91;5017423;28;20102;-79
2021/11/11 00:09:32;;;;;;;4.68;2.58;;;;;;;10.38;75.94;101608.91;5034289;28;20475;-78
2021/11/11 00:11:59;;;;;;;4.63;2.28;;;;;;;10.37;75.94;101607.28;5031727;28;20115;-79
2021/11/11 00:14:26;;;;;;;6.18;2.50;;;;;;;10.37;76.01;101607.28;5033095;28;20048;-79
2021/11/11 00:16:54;;;;;;;5.53;2.10;;;;;;;10.38;75.95;101602.53;5033404;28;20495;-79
2021/11/11 00:19:20;;;;;;;5.55;2.55;;;;;;;10.37;76.18;101615.59;5014677;28;20481;-79
2021/11/11 00:21:48;;;;;;;5.95;3.00;;;;;;;10.38;76.34;101606.13;5014986;28;20045;-79
2021/11/11 00:24:15;;;;;;;5.13;2.50;;;;;;;10.36;76.20;101594.59;5030328;28;20437;-79
2021/11/11 00:26:43;;;;;;;3.00;2.70;;;;;;;10.36;76.29;101602.06;5035744;28;20064;-78
2021/11/11 00:29:10;;;;;;;8.88;3.55;;;;;;;10.35;76.52;101609.53;5031831;28;20025;-79
2021/11/11 00:31:37;;;;;;;15.60;4.57;;;;;;;10.34;76.50;101601.59;5011951;28;20069;-79
2021/11/11 00:34:04;;;;;;;11.57;4.32;;;;;;;10.32;76.73;101610.22;5013443;28;20046;-79
2021/11/11 00:36:31;;;;;;;6.10;2.90;;;;;;;10.28;76.39;101611.16;5029984;28;20132;-79
2021/11/11 00:38:58;;;;;;;8.00;3.22;;;;;;;10.28;76.88;101609.22;4997916;28;20887;-79
2021/11/11 00:41:26;;;;;;;6.60;2.85;;;;;;;10.29;76.85;101594.25;5032566;28;20114;-79
2021/11/11 00:43:53;;;;;;;5.65;3.13;;;;;;;10.29;76.58;101602.56;5036193;28;20049;-79
2021/11/11 00:46:19;;;;;;;6.60;3.65;;;;;;;10.30;76.74;101595.88;5051633;28;20037;-79
2021/11/11 00:48:46;;;;;;;5.07;2.90;;;;;;;10.31;76.61;101586.44;5051903;28;20139;-79
2021/11/11 00:51:13;;;;;;;9.13;3.10;;;;;;;10.29;76.48;101583.19;5047325;28;20037;-78
2021/11/11 00:53:40;;;;;;;8.73;4.78;;;;;;;10.28;76.54;101589.84;5050846;28;20098;-79
2021/11/11 00:56:07;;;;;;;4.72;2.83;;;;;;;10.26;76.80;101589.34;5032631;28;20463;-79
2021/11/11 00:58:34;;;;;;;4.78;2.08;;;;;;;10.28;76.80;101581.53;5034361;28;20068;-79
2021/11/11 01:01:01;;;;;;;2.70;2.13;;;;;;;10.28;76.97;101575.19;5047900;28;20053;-79
2021/11/11 01:03:40;;;;;;;5.00;2.45;;;;;;;10.28;76.90;101576.00;5052044;28;20136;-79
2021/11/11 01:06:09;;;;;;;7.22;2.17;;;;;;;10.28;76.79;101570.47;5053881;28;20128;-79
2021/11/11 01:08:37;;;;;;;4.18;2.22;;;;;;;10.28;77.01;101570.47;5056578;28;20119;-79
2021/11/11 01:11:05;;;;;;;4.65;1.95;;;;;;;10.26;77.11;101578.28;5054947;28;20037;-79
2021/11/11 01:13:34;;;;;;;3.50;2.17;;;;;;;10.24;77.35;101580.56;5052479;28;20033;-79
2021/11/11 01:16:02;;;;;;;4.97;2.03;;;;;;;10.25;76.77;101570.28;5055140;28;20121;-79
2021/11/11 01:18:29;;;;;;;3.65;2.05;;;;;;;10.25;76.92;101571.09;5055563;28;20136;-79
2021/11/11 01:20:56;;;;;;;3.63;2.22;;;;;;;10.26;76.94;101569.16;5055893;28;20135;-79
2021/11/11 01:23:24;;;;;;;5.25;2.08;;;;;;;10.25;77.25;101568.34;5050863;28;20052;-79
2021/11/11 01:25:51;;;;;;;4.93;2.33;;;;;;;10.25;77.17;101565.56;5055776;28;20558;-79
2021/11/11 01:28:18;;;;;;;7.47;3.15;;;;;;;10.23;77.35;101578.09;5054743;28;20144;-79
2021/11/11 01:30:45;;;;;;;5.63;2.63;;;;;;;10.19;77.36;101569.63;5054949;28;20055;-79
2021/11/11 01:33:14;;;;;;;2.70;1.92;;;;;;;10.19;77.54;101566.84;5054121;28;20233;-79
2021/11/11 01:35:41;;;;;;;2.50;2.20;;;;;;;10.20;77.31;101568.50;5055731;28;20103;-79
2021/11/11 01:38:09;;;;;;;5.65;2.63;;;;;;;10.21;77.32;101570.13;5054947;28;20099;-79
2021/11/11 01:40:36;;;;;;;7.00;3.70;;;;;;;10.22;77.37;101570.94;5055135;28;20119;-79
2021/11/11 01:43:05;;;;;;;3.40;1.90;;;;;;;10.20;77.40;101562.97;5035181;28;20041;-78
2021/11/11 01:45:41;;;;;;;3.90;2.00;;;;;;;10.22;77.36;101557.09;5050689;28;20056;-79
2021/11/11 01:48:14;;;;;;;3.10;1.90;;;;;;;10.20;77.64;101545.53;5055715;28;20052;-79
2021/11/11 01:50:42;;;;;;;5.80;2.90;;;;;;;10.19;77.51;101550.25;5054262;28;20139;-79
2021/11/11 01:53:11;;;;;;;3.05;2.35;;;;;;;10.18;77.57;101545.88;5049957;28;20132;-79
2021/11/11 01:55:40;;;;;;;4.15;1.80;;;;;;;10.14;77.71;101542.13;5037744;28;20044;-79
2021/11/11 01:58:07;;;;;;;4.05;2.03;;;;;;;10.17;77.64;101543.41;5055272;28;20045;-79
2021/11/11 02:00:40;;;;;;;4.57;1.73;;;;;;;10.17;77.46;101547.00;5053855;28;20056;-79
2021/11/11 02:03:07;;;;;;;4.13;2.15;;;;;;;10.19;77.80;101546.69;5052972;28;20041;-79
2021/11/11 02:05:35;;;;;;;6.00;2.80;;;;;;;10.18;77.74;101537.56;5054862;28;20124;-78
2021/11/11 02:08:04;;;;;;;7.10;2.33;;;;;;;10.19;77.63;101547.50;5055623;28;20056;-79
2021/11/11 02:10:33;;;;;;;5.80;2.08;;;;;;;10.20;77.73;101548.31;5053728;28;20129;-79
2021/11/11 02:13:01;;;;;;;3.13;2.08;;;;;;;10.16;77.77;101542.63;5052990;28;20484;-78
2021/11/11 02:15:28;;;;;;;5.60;2.35;;;;;;;10.16;77.80;101548.16;5050605;28;20123;-79
2021/11/11 02:17:55;;;;;;;7.82;2.92;;;;;;;10.13;78.08;101551.56;5055745;28;20088;-79
2021/11/11 02:20:26;;;;;;;3.80;2.17;;;;;;;10.12;77.88;101547.16;5053422;28;20060;-79
2021/11/11 02:22:55;;;;;;;4.15;1.98;;;;;;;10.12;77.69;101536.09;5050735;28;20091;-79
2021/11/11 02:25:24;;;;;;;3.70;1.75;;;;;;;10.14;77.77;101536.56;5054508;28;20120;-79
2021/11/11 02:27:54;;;;;;;3.92;2.05;;;;;;;10.15;77.63;101527.16;5036402;28;20065;-79
2021/11/11 02:30:23;;;;;;;4.00;1.45;;;;;;;10.16;77.71;101528.78;5052945;28;20064;-79
2021/11/11 02:32:50;;;;;;;4.03;1.55;;;;;;;10.17;77.67;101535.13;5053548;28;20037;-79
2021/11/11 02:35:17;;;;;;;1.95;1.52;;;;;;;10.16;77.65;101534.31;5053030;28;20135;-79
2021/11/11 02:37:45;;;;;;;4.97;2.15;;;;;;;10.18;77.55;101531.22;5053826;28;20114;-79
2021/11/11 02:40:18;;;;;;;3.28;1.80;;;;;;;10.17;77.68;101527.63;5054838;28;20809;-79
2021/11/11 02:42:46;;;;;;;2.40;1.70;;;;;;;10.16;77.50;101512.19;5056835;28;20447;-79
2021/11/11 02:45:18;;;;;;;2.20;1.50;;;;;;;10.14;77.55;101517.22;5053107;28;20067;-79
2021/11/11 02:47:46;;;;;;;7.07;2.10;;;;;;;10.13;77.74;101517.53;5055572;28;20045;-79
2021/11/11 02:50:14;;;;;;;1.67;1.20;;;;;;;10.14;77.60;101503.38;5051405;28;20029;-79
2021/11/11 02:52:42;;;;;;;3.50;1.73;;;;;;;10.12;77.54;101504.81;5051734;28;20086;-79
2021/11/11 02:55:09;;;;;;;2.88;1.65;;;;;;;10.12;77.58;101502.03;5051903;28;20124;-79
2021/11/11 02:57:38;;;;;;;2.53;1.30;;;;;;;10.11;77.53;101495.69;5018065;28;20067;-78
2021/11/11 03:00:16;;;;;;;1.75;1.42;;;;;;;10.10;77.43;101491.31;5051218;28;20079;-79
2021/11/11 03:02:46;;;;;;;2.53;1.45;;;;;;;10.11;77.80;101503.97;5051987;28;20073;-79
2021/11/11 03:05:18;;;;;;;2.38;1.33;;;;;;;10.11;77.76;101498.44;5035969;28;20094;-79
2021/11/11 03:07:45;;;;;;;3.92;1.40;;;;;;;10.11;77.76;101484.63;5052975;28;20040;-79
2021/11/11 03:10:17;;;;;;;2.10;1.33;;;;;;;10.08;78.00;101492.78;5032382;28;20072;-79
2021/11/11 03:12:45;;;;;;;5.03;1.58;;;;;;;10.06;78.13;101498.59;5054123;28;20058;-79
2021/11/11 03:15:13;;;;;;;3.38;1.58;;;;;;;10.07;78.16;101491.94;5050792;28;20037;-79
2021/11/11 03:17:41;;;;;;;2.53;1.75;;;;;;;10.08;77.89;101493.59;5053341;28;20493;-79
2021/11/11 03:20:10;;;;;;;4.68;1.60;;;;;;;10.07;78.20;101491.94;5034426;28;20029;-78
2021/11/11 03:22:37;;;;;;;5.53;1.95;;;;;;;10.06;78.13;101484.00;5036385;28;20116;-79
2021/11/11 03:25:04;;;;;;;4.07;1.80;;;;;;;10.04;78.04;101491.78;5053568;28;20123;-78
2021/11/11 03:27:32;;;;;;;5.43;2.08;;;;;;;10.03;78.13;101490.97;5052174;28;20076;-79
2021/11/11 03:29:59;;;;;;;3.08;2.00;;;;;;;10.03;78.15;101496.50;5052720;28;20172;-78
2021/11/11 03:32:26;;;;;;;3.33;1.70;;;;;;;10.02;78.44;101494.88;5053505;28;20119;-79
2021/11/11 03:34:52;;;;;;;3.58;2.15;;;;;;;10.01;78.55;101490.47;5038104;28;20048;-79
2021/11/11 03:37:22;;;;;;;3.38;1.75;;;;;;;10.01;78.57;101493.22;5052599;28;20792;-78
2021/11/11 03:39:50;;;;;;;6.30;1.88;;;;;;;10.02;78.53;101489.34;5031104;28;20546;-78
2021/11/11 03:42:17;;;;;;;4.72;1.20;;;;;;;10.03;78.46;101485.44;5050456;28;20504;-79
2021/11/11 03:44:45;;;;;;;4.07;2.03;;;;;;;10.03;78.59;101490.97;5050699;28;20052;-79
2021/11/11 03:47:13;;;;;;;2.45;1.60;;;;;;;10.02;78.52;101494.88;5051171;28;20037;-79
2021/11/11 03:49:40;;;;;;;3.60;1.73;;;;;;;10.02;78.57;101483.81;5031938;28;20187;-79
2021/11/11 03:52:09;;;;;;;2.08;1.35;;;;;;;10.02;78.38;101489.34;5052267;28;20090;-79
2021/11/11 03:54:36;;;;;;;4.93;2.03;;;;;;;10.00;78.57;101486.09;5033343;28;20068;-79
2021/11/11 03:57:04;;;;;;;4.15;1.40;;;;;;;10.01;78.52;101482.16;5050432;28;20052;-79
2021/11/11 03:59:34;;;;;;;2.83;1.60;;;;;;;10.01;78.47;101490.47;5047736;28;20532;-79
2021/11/11 04:02:03;;;;;;;2.47;1.33;;;;;;;9.99;78.49;101483.63;5052423;28;20055;-79
2021/11/11 04:04:31;;;;;;;3.75;1.38;;;;;;;9.98;78.49;101485.56;5032490;28;20041;-79
2021/11/11 04:06:57;;;;;;;4.05;1.25;;;;;;;9.98;78.44;101488.34;5053697;28;20040;-79
2021/11/11 04:09:24;;;;;;;3.28;1.88;;;;;;;9.97;78.31;101483.97;5029426;28;20521;-79
2021/11/11 04:11:51;;;;;;;4.75;1.95;;;;;;;9.93;78.49;101482.97;5037859;28;20053;-79
2021/11/11 04:14:18;;;;;;;5.07;1.33;;;;;;;9.93;78.51;101477.44;5035064;28;20546;-79
2021/11/11 04:16:47;;;;;;;5.57;1.42;;;;;;;9.93;78.31;101482.97;5032960;28;20049;-78
2021/11/11 04:19:14;;;;;;;3.75;1.63;;;;;;;9.91;78.34;101481.66;5050495;28;20110;-79
2021/11/11 04:21:42;;;;;;;3.72;1.42;;;;;;;9.88;78.21;101476.78;5051643;28;20048;-79
2021/11/11 04:24:10;;;;;;;4.25;1.77;;;;;;;9.81;78.34;101477.25;5034503;28;20486;-79
2021/11/11 04:26:46;;;;;;;5.75;1.48;;;;;;;9.73;78.36;101478.06;5051679;28;20143;-79
2021/11/11 04:29:20;;;;;;;5.65;1.40;;;;;;;9.67;78.17;101476.56;5051277;28;20480;-78
2021/11/11 04:32:01;;;;;;;2.13;1.10;;;;;;;9.62;78.41;101476.72;5051416;28;20037;-78
2021/11/11 04:34:30;;;;;;;1.50;0.82;;;;;;;9.55;78.29;101470.84;5051365;28;20060;-79
2021/11/11 05:01:24;;;;;;;5.40;2.10;;;;;;;8.85;78.15;101452.34;5050373;28;20124;-78
2021/11/11 05:03:50;;;;;;;3.08;1.50;;;;;;;8.80;78.44;101446.13;5034042;28;20124;-79
2021/11/11 05:06:18;;;;;;;5.70;2.17;;;;;;;8.78;78.65;101452.00;5052998;28;20465;-78
2021/11/11 05:08:45;;;;;;;3.70;1.73;;;;;;;8.72;78.69;101453.25;5050352;28;20068;-79
2021/11/11 05:11:13;;;;;;;4.32;1.60;;;;;;;8.70;78.63;101447.22;5050565;28;20132;-79
2021/11/11 05:13:40;;;;;;;3.38;1.55;;;;;;;8.65;78.77;101433.56;5052117;28;20419;-79
2021/11/11 05:16:07;;;;;;;4.47;1.25;;;;;;;8.61;78.78;101438.06;5051358;28;20041;-79
2021/11/11 05:18:33;;;;;;;1.75;1.50;;;;;;;8.61;78.75;101437.25;5032354;28;20193;-79
2021/11/11 05:21:00;;;;;;;2.10;1.42;;;;;;;8.57;78.77;101440.66;5050067;28;20188;-78
2021/11/11 05:23:28;;;;;;;2.72;1.60;;;;;;;8.52;78.92;101442.72;5053864;28;20076;-79
2021/11/11 05:25:55;;;;;;;1.83;1.20;;;;;;;8.48;79.05;101438.97;5053584;28;20546;-79
2021/11/11 05:28:22;;;;;;;2.78;1.25;;;;;;;8.44;79.41;101437.97;5051325;28;20043;-79
2021/11/11 05:30:49;;;;;;;3.03;1.70;;;;;;;8.41;79.27;101433.06;5050239;28;20087;-79
2021/11/11 05:33:16;;;;;;;2.00;1.30;;;;;;;8.42;79.07;101434.69;5051992;28;20118;-79
2021/11/11 05:35:43;;;;;;;4.55;1.55;;;;;;;8.40;79.12;101431.44;5052950;28;20087;-79
2021/11/11 05:38:15;;;;;;;2.33;1.95;;;;;;;8.32;79.32;101426.66;5037438;28;20400;-79
2021/11/11 05:40:41;;;;;;;2.22;1.25;;;;;;;8.28;79.18;101426.50;5048120;28;20041;-79
2021/11/11 05:43:08;;;;;;;3.00;1.27;;;;;;;8.27;79.25;101418.53;5052631;28;20044;-78
2021/11/11 05:45:35;;;;;;;2.75;1.38;;;;;;;8.28;79.26;101422.91;5050150;28;20140;-78
2021/11/11 05:48:03;;;;;;;1.50;1.00;;;;;;;8.23;79.30;101423.00;5052997;28;20079;-79
2021/11/11 05:50:30;;;;;;;2.83;1.73;;;;;;;8.20;79.47;101420.88;5053467;28;20078;-79
2021/11/11 05:52:57;;;;;;;3.05;1.42;;;;;;;8.17;79.26;101422.31;5038331;28;20036;-79
2021/11/11 05:55:24;;;;;;;1.50;0.93;;;;;;;8.19;79.53;101424.75;5048741;28;20068;-78
2021/11/11 05:57:50;;;;;;;3.45;1.63;;;;;;;8.22;79.21;101418.63;5052280;28;20037;-78
2021/11/11 06:00:19;;;;;;;3.80;1.60;;;;;;;8.25;79.51;101412.47;5036920;28;20037;-79
2021/11/11 06:02:46;;;;;;;3.33;1.52;;;;;;;8.29;79.25;101417.06;5055471;28;20037;-79
2021/11/11 06:05:14;;;;;;;9.02;2.38;;;;;;;8.34;79.22;101419.69;5057275;28;20111;-79
2021/11/11 06:07:41;;;;;;;6.32;2.53;;;;;;;8.41;79.29;101413.75;5036071;28;20434;-78
2021/11/11 06:10:09;;;;;;;11.15;3.50;;;;;;;8.46;79.40;101414.44;5051910;28;20123;-80
2021/11/11 06:12:36;;;;;;;10.95;3.58;;;;;;;8.50;79.28;101409.09;5057459;28;20136;-80
2021/11/11 06:15:04;;;;;;;8.73;2.50;;;;;;;8.53;79.16;101408.47;5044283;28;20068;-82
2021/11/11 06:17:31;;;;;;;4.63;1.75;;;;;;;8.59;79.40;101407.22;5039399;28;20377;-81
2021/11/11 06:20:00;;;;;;;6.35;1.58;;;;;;;8.66;79.48;101402.06;5058300;28;20123;-81
2021/11/11 06:22:29;;;;;;;4.35;1.52;;;;;;;8.71;79.60;101401.91;5058856;28;20107;-81
2021/11/11 06:24:56;;;;;;;4.35;2.38;;;;;;;8.76;79.87;101395.47;5061124;28;20079;-82
2021/11/11 06:27:22;;;;;;;3.50;1.52;;;;;;;8.81;79.65;101398.91;5042229;28;20116;-82
2021/11/11 06:29:49;;;;;;;6.93;2.00;;;;;;;8.85;79.36;101394.34;5055628;28;20558;-81
2021/11/11 06:32:16;;;;;;;4.25;1.52;;;;;;;8.89;79.54;101398.13;5059269;28;20147;-82
2021/11/11 06:35:04;;;;;;;9.57;3.00;;;;;;;8.93;79.79;101390.81;5060277;28;20250;-81
2021/11/11 06:37:32;;;;;;;6.78;2.47;;;;;;;9.00;79.38;101398.66;5061586;28;20036;-82
2021/11/11 06:39:58;;;;;;;6.60;2.85;;;;;;;9.02;79.62;101394.44;5039515;28;20050;-82
2021/11/11 06:42:25;;;;;;;6.88;2.83;;;;;;;9.04;79.33;101389.41;5055176;28;20396;-82
2021/11/11 06:44:52;;;;;;;7.78;4.28;;;;;;;9.06;79.33;101395.44;5041806;28;20045;-81
2021/11/11 06:47:19;;;;;;;9.82;4.10;;;;;;;9.11;79.26;101383.41;5053692;28;20067;-82
2021/11/11 06:49:46;;;;;;;9.00;3.67;;;;;;;9.14;79.31;101386.34;5039079;28;20064;-82
2021/11/11 06:52:13;;;;;;;4.10;2.15;;;;;;;9.14;79.50;101386.34;5058209;28;20045;-81
2021/11/11 06:54:42;;;;;;;5.60;1.95;;;;;;;9.17;79.25;101380.19;5058875;28;20044;-82
2021/11/11 06:57:09;;;;;;;4.95;1.77;;;;;;;9.18;79.02;101381.84;5041596;28;20046;-81
2021/11/11 06:59:35;;;;;;;7.90;2.10;;;;;;;9.21;79.11;101379.56;5038323;28;20079;-81
2021/11/11 07:02:03;;;;;;;8.88;2.55;;;;;;;9.23;79.18;101377.28;5042652;28;20060;-82
2021/11/11 07:04:30;;;;;;;11.52;3.25;;;;;;;9.24;79.12;101374.19;5056714;28;20425;-82
2021/11/11 07:06:57;;;;;;;5.10;1.55;;;;;;;9.27;79.11;101375.50;5036840;28;20033;-82
2021/11/11 07:09:24;;;;;;;4.35;1.08;;;;;;;9.28;79.05;101377.13;5038986;28;20083;-81
2021/11/11 07:11:50;;;;;;;3.08;0.88;;;;;;;9.32;78.96;101380.91;5037150;28;20068;-82
2021/11/11 07:14:18;;;;;;;4.18;0.73;;;;;;;9.35;78.85;101388.53;5056474;28;20032;-81
2021/11/11 07:16:46;;;;;;;1.52;0.55;;;;;;;9.34;78.91;101376.69;5037785;28;20040;-81
2021/11/11 07:19:13;;;;;;;1.35;0.50;;;;;;;9.37;78.89;101377.97;5059600;28;20119;-82
2021/11/11 07:21:40;;;;;;;2.50;0.70;;;;;;;9.40;79.01;101378.13;5042205;28;20098;-82
2021/11/11 07:24:07;;;;;;;4.25;0.60;;;;;;;9.44;78.93;101383.84;5055943;28;20040;-82
2021/11/11 07:26:34;;;;;;;3.08;0.75;;;;;;;9.46;79.19;101387.91;5053093;28;20495;-82
2021/11/11 07:29:01;;;;;;;12.60;1.33;;;;;;;9.49;79.12;101369.88;5054158;28;20689;-82
2021/11/11 07:31:27;;;;;;;2.13;1.38;;;;;;;9.52;79.44;101375.56;5039577;28;20040;-81
2021/11/11 07:33:55;;;;;;;1.40;0.68;;;;;;;9.54;79.66;101378.81;5057702;28;20041;-82
2021/11/11 07:36:24;;;;;;;2.03;0.75;;;;;;;9.58;79.59;101381.75;5054523;28;20036;-81
2021/11/11 07:38:53;;;;;;;1.48;0.73;;;;;;;9.60;79.93;101372.00;5054458;28;20036;-81
2021/11/11 07:41:20;;;;;;;5.53;2.80;;;;;;;9.62;79.82;101379.97;5033756;28;20040;-82
2021/11/11 07:43:49;;;;;;;4.03;0.95;;;;;;;9.66;79.83;101370.69;5053433;28;20120;-80
2021/11/11 07:46:22;;;;;;;2.80;0.63;;;;;;;9.68;79.79;101379.50;5057157;28;20123;-81
2021/11/11 07:48:48;;;;;;;5.93;0.95;;;;;;;9.70;80.00;101373.63;5035178;28;20035;-79
2021/11/11 07:51:15;;;;;;;5.43;1.00;;;;;;;9.73;80.04;101367.47;5061261;28;20036;-79
2021/11/11 07:53:43;;;;;;;3.05;1.40;;;;;;;9.73;80.17;101365.50;5058878;28;20040;-78
2021/11/11 07:56:10;;;;;;;4.07;0.82;;;;;;;9.75;80.50;101362.41;5039837;28;22478;-79
2021/11/11 07:58:37;;;;;;;5.03;1.63;;;;;;;9.75;80.79;101365.16;5055381;28;20073;-79
2021/11/11 08:01:03;;;;;;;3.25;1.20;;;;;;;9.77;81.01;101365.66;5023853;28;20456;-79
2021/11/11 08:03:31;;;;;;;7.10;1.20;;;;;;;9.80;81.10;101353.94;5054855;28;20040;-78
2021/11/11 08:05:58;;;;;;;5.45;1.20;;;;;;;9.82;81.46;101369.06;5031809;28;20131;-79
2021/11/11 08:08:24;;;;;;;6.68;1.13;;;;;;;9.81;82.15;101358.34;5052682;28;20140;-78
2021/11/11 08:10:51;;;;;;;8.57;1.30;;;;;;;9.82;82.14;101351.69;5055447;28;20542;-78
2021/11/11 08:13:18;;;;;;;10.70;3.78;;;;;;;9.84;82.16;101357.72;5058010;28;20473;-78
2021/11/11 08:15:45;;;;;;;6.30;1.40;;;;;;;9.86;82.17;101341.59;5058583;28;20117;-78
2021/11/11 08:18:12;;;;;;;6.22;1.38;;;;;;;9.88;82.51;101347.59;5054536;28;20558;-79
2021/11/11 08:20:39;;;;;;;3.97;1.00;;;;;;;9.90;82.79;101344.53;5056959;28;20033;-78
2021/11/11 08:23:06;;;;;;;2.58;1.00;;;;;;;9.92;82.84;101340.28;5054592;28;20846;-78
2021/11/11 08:25:33;;;;;;;2.88;1.20;;;;;;;9.95;82.95;101345.19;5041216;28;20048;-78
2021/11/11 08:28:00;;;;;;;7.75;1.10;;;;;;;9.95;83.25;101336.88;5033683;28;20128;-80
2021/11/11 08:30:27;;;;;;;5.20;1.15;;;;;;;9.95;83.59;101339.66;5050461;28;20078;-79
2021/11/11 08:32:55;;;;;;;5.30;1.25;;;;;;;9.96;83.69;101327.44;5038693;28;20041;-78
2021/11/11 08:35:23;;;;;;;4.32;2.80;;;;;;;9.97;83.97;101326.31;5055045;28;20119;-78
2021/11/11 08:37:53;;;;;;;2.58;1.30;;;;;;;9.99;84.15;101328.72;5058303;28;20131;-78
2021/11/11 08:40:21;;;;;;;4.78;1.45;;;;;;;9.99;84.32;101321.25;5034390;28;20040;-78
2021/11/11 08:42:51;;;;;;;4.28;1.40;;;;;;;10.00;84.56;101324.84;5057093;28;20043;-78
2021/11/11 08:45:18;;;;;;;4.13;2.00;;;;;;;9.99;85.01;101329.53;5033859;28;20048;-78
2021/11/11 08:47:48;;;;;;;6.72;2.03;;;;;;;9.99;85.38;101325.97;5054332;28;20396;-78
2021/11/11 08:50:15;;;;;;;5.40;1.27;;;;;;;9.98;85.44;101322.38;5031998;28;20045;-78
2021/11/11 08:52:49;;;;;;;7.68;1.67;;;;;;;9.99;85.82;101314.91;5030692;28;20103;-78
2021/11/11 08:55:18;;;;;;;9.63;2.40;;;;;;;10.02;85.68;101312.28;5028311;28;20040;-78
2021/11/11 08:57:45;;;;;;;4.80;1.75;;;;;;;10.02;86.49;101312.28;5052689;28;20044;-84
2021/11/11 09:00:18;;;;;;;5.45;1.60;;;;;;;10.05;86.26;101314.41;5051179;28;20079;-79
2021/11/11 09:02:45;;;;;;;;;;;;;;;10.04;88.81;101315.53;5035908;28;20091;-77
2021/11/11 09:05:13;;;;;;;5.32;1.45;;;;;;;10.06;86.75;101313.25;5053203;28;19916;-78
2021/11/11 09:07:40;;;;;;;6.35;1.48;;;;;;;10.09;86.47;101307.06;5030729;28;20028;-78
2021/11/11 09:10:09;;;;;;;5.10;1.98;;;;;;;10.11;86.84;101302.00;5043028;28;20049;-78
2021/11/11 09:12:37;;;;;;;5.38;2.00;;;;;;;10.10;87.04;101311.47;5044805;28;20125;-78
2021/11/11 09:15:08;;;;;;;8.10;2.03;;;;;;;10.11;87.45;101304.00;5050207;28;20124;-78
2021/11/11 09:17:35;;;;;;;8.50;2.83;;;;;;;10.13;87.46;101305.31;5053003;28;20149;-78
2021/11/11 09:20:05;;;;;;;4.28;2.47;;;;;;;10.14;87.54;101293.09;5034963;28;20761;-78
2021/11/11 09:22:34;;;;;;;4.32;2.30;;;;;;;10.18;87.49;101298.78;5033778;28;20118;-78
2021/11/11 09:25:05;;;;;;;4.97;2.33;;;;;;;10.17;87.66;101281.38;5052568;28;20029;-78
2021/11/11 09:27:33;;;;;;;3.75;2.47;;;;;;;10.20;87.82;101286.25;5056298;28;20074;-78
2021/11/11 09:30:00;;;;;;;6.63;2.63;;;;;;;10.21;87.96;101271.28;5055614;28;20104;-78
2021/11/11 09:32:27;;;;;;;5.95;2.67;;;;;;;10.22;88.14;101259.06;5037092;28;20049;-78
2021/11/11 09:34:55;;;;;;;6.47;2.63;;;;;;;10.25;88.58;101255.63;5056722;28;20099;-78
2021/11/11 09:37:22;;;;;;;4.45;2.67;;;;;;;10.29;88.60;101250.25;5037181;28;20068;-78
2021/11/11 09:39:50;;;;;;;7.57;3.17;;;;;;;10.34;88.82;101242.59;5055392;28;20041;-78
2021/11/11 09:42:18;;;;;;;12.90;2.90;;;;;;;10.38;89.08;101232.47;5037467;28;20055;-78
2021/11/11 09:44:45;;;;;;;5.55;3.15;;;;;;;10.45;88.83;101228.38;5053676;28;20131;-79
2021/11/11 09:47:12;;;;;;;7.15;2.80;;;;;;;10.51;89.11;101221.50;5055867;28;20120;-78
2021/11/11 09:49:40;;;;;;;4.78;3.20;;;;;;;10.54;89.07;101216.09;5052007;28;20029;-78
2021/11/11 09:52:08;;;;;;;4.45;2.78;;;;;;;10.56;89.65;101224.09;5056430;28;20037;-78
2021/11/11 09:59:49;;;;;;;3.95;2.70;;;;;;;10.65;89.36;101222.06;5055122;28;20036;-78
2021/11/11 10:02:16;;;;;;;5.43;2.70;;;;;;;10.69;89.36;101220.28;5037165;28;20044;-78
2021/11/11 10:04:43;;;;;;;4.15;2.30;;;;;;;10.76;89.73;101206.69;5054088;28;20033;-78
2021/11/11 10:07:10;;;;;;;5.35;2.25;;;;;;;10.81;89.79;101195.44;5055520;28;20033;-78
2021/11/11 10:09:45;;;;;;;3.00;2.30;;;;;;;10.86;90.68;101195.22;5055659;28;20033;-78
2021/11/11 10:12:18;;;;;;;3.55;1.45;;;;;;;10.97;90.71;101193.69;5057341;28;20067;-78
2021/11/11 10:14:47;;;;;;;0.80;0.65;;;;;;;11.02;90.99;101196.25;5056997;28;20044;-78
2021/11/11 10:17:19;;;;;;;0.57;0.50;;;;;;;11.07;90.68;101184.97;5053776;28;20072;-79
2021/11/11 10:19:50;;;;;;;1.02;0.30;;;;;;;11.12;90.79;101190.31;5056718;28;20052;-79
2021/11/11 10:22:26;;;;;;;1.17;0.60;;;;;;;11.19;90.38;101179.50;5052035;28;20131;-78
2021/11/11 10:25:00;;;;;;;1.58;0.80;;;;;;;11.27;90.48;101184.19;5054588;28;20052;-78
2021/11/11 10:27:43;;;;;;;3.28;0.40;;;;;;;11.35;90.85;101176.94;5037783;28;20047;-78
2021/11/11 10:30:23;;;;;;;0.75;0.30;;;;;;;11.41;90.44;101170.03;5054360;28;20068;-78
2021/11/11 10:33:13;;;;;;;1.08;0.50;;;;;;;11.46;90.26;101159.50;5054385;28;20044;-78
2021/11/11 10:35:44;;;;;;;1.67;0.32;;;;;;;11.49;89.88;101150.50;5039825;28;20045;-78
2021/11/11 10:38:19;;;;;;;2.80;0.30;;;;;;;11.54;89.84;101139.22;5036618;28;20041;-79
2021/11/11 10:40:49;;;;;;;0.30;0.28;;;;;;;11.60;89.46;101145.34;5036570;28;20483;-78
2021/11/11 10:43:22;;;;;;;2.25;0.30;;;;;;;11.63;89.34;101142.72;5054664;28;20048;-78
2021/11/11 10:45:52;;;;;;;0.40;0.10;;;;;;;11.71;89.25;101151.31;5037176;28;20076;-78
2021/11/11 10:48:24;;;;;;;0.28;0.20;;;;;;;11.78;88.92;101152.34;5054471;28;20546;-79
2021/11/11 10:51:05;;;;;;;0.52;0.30;;;;;;;11.83;88.95;101149.41;5055219;28;20040;-78
2021/11/11 10:53:34;;;;;;;0.25;0.25;;;;;;;11.85;88.64;101141.53;5054021;28;20894;-79
2021/11/11 10:56:04;;;;;;;0.10;0.10;;;;;;;11.86;88.42;101147.91;5054355;28;20051;-78
2021/11/11 10:58:34;;;;;;;1.33;0.30;;;;;;;11.89;88.42;101142.44;5054781;28;20081;-78
2021/11/11 11:01:06;;;;;;;1.20;0.30;;;;;;;11.91;88.41;101140.16;5053913;28;20081;-78
2021/11/11 11:03:42;;;;;;;0.20;0.20;;;;;;;11.95;88.40;101134.72;5052653;28;20052;-79
2021/11/11 11:06:11;;;;;;;0.25;0.20;;;;;;;12.00;88.15;101129.75;5051843;28;20516;-78
2021/11/11 11:08:42;;;;;;;0.63;0.28;;;;;;;12.07;88.10;101121.66;5035885;28;20048;-78
2021/11/11 11:11:21;;;;;;;0.20;0.10;;;;;;;12.15;87.82;101117.97;5053774;28;20048;-78
2021/11/11 11:13:53;;;;;;;2.03;0.30;;;;;;;12.23;87.58;101113.47;5054440;28;20072;-78
2021/11/11 11:16:42;;;;;;;2.35;0.20;;;;;;;12.28;87.47;101106.88;5052602;28;20064;-77
2021/11/11 11:19:14;;;;;;;0.70;0.32;;;;;;;12.35;87.18;101095.97;5052880;28;20128;-78
2021/11/11 11:21:42;;;;;;;;;;;;;;;12.41;86.51;101095.41;5054474;28;20123;-78
2021/11/11 11:24:12;;;;;;;1.33;0.32;;;;;;;12.50;86.95;101095.25;5052982;28;20000;-78
2021/11/11 11:26:52;;;;;;;0.28;0.15;;;;;;;12.59;86.59;101099.53;5051637;28;20061;-78
2021/11/11 11:29:29;;;;;;;1.33;0.32;;;;;;;12.66;86.49;101087.81;5052007;28;20147;-78
2021/11/11 11:32:10;;;;;;;0.68;0.35;;;;;;;12.75;86.62;101075.44;5054643;28;20079;-78
2021/11/11 11:34:47;;;;;;;1.55;0.20;;;;;;;12.86;86.34;101069.38;5053014;28;20120;-79
2021/11/11 11:37:21;;;;;;;3.13;0.35;;;;;;;12.94;86.04;101066.44;5035364;28;20131;-79
2021/11/11 11:39:52;;;;;;;1.38;0.30;;;;;;;13.01;85.71;101054.72;5035401;28;20079;-78
2021/11/11 11:42:27;;;;;;;1.00;0.28;;;;;;;13.02;85.55;101048.81;5052679;28;20132;-78
2021/11/11 11:45:01;;;;;;;1.13;0.10;;;;;;;13.04;85.39;101042.91;5054546;28;20127;-78
2021/11/11 11:47:34;;;;;;;0.25;0.00;;;;;;;13.05;85.14;101041.75;5050072;28;21831;-78
2021/11/11 11:50:13;;;;;;;1.95;0.20;;;;;;;13.07;84.48;101039.44;5049454;28;20136;-79
2021/11/11 11:52:46;;;;;;;2.17;0.10;;;;;;;13.07;84.65;101028.31;5053395;28;20136;-78
2021/11/11 11:55:32;;;;;;;0.17;0.00;;;;;;;13.09;84.55;101025.97;5053139;28;20036;-78
2021/11/11 11:58:03;;;;;;;1.48;0.10;;;;;;;13.09;84.52;101018.47;5053416;28;20473;-78
2021/11/11 12:14:11;;;;;;;1.02;0.47;;;;;;;13.15;83.39;100977.31;5052061;28;20064;-78
2021/11/11 12:39:43;;;;;;;0.10;0.10;;;;;;;13.32;82.16;100916.59;5034692;28;20142;-78
2021/11/11 12:42:39;;;;;;;0.70;0.10;;;;;;;13.34;82.06;100930.94;5032684;28;20040;-78
2021/11/11 12:45:24;;;;;;;3.73;0.43;;;;;;;13.34;82.18;100922.59;5035920;28;20052;-78